Time;durP1;ratioP1;P1;durP2;ratioP2;P2;SDS_P1;SDS_P2;PMS_P1;PMS_P2;Temp;Humidity;BMP_temperature;BMP_pressure;BME280_temperature;BME280_humidity;BME280_pressure;Samples;Min_cycle;Max_cycle;Signal;HPM_P1;HPM_P2
2022/06/14 00:00:55;;;;;;;10.07;2.28;;;21.00;49.70;;;;;;5065336;28;20369;-63
2022/06/14 00:03:31;;;;;;;4.47;2.20;;;21.00;49.70;;;;;;5058568;28;20020;-63
2022/06/14 00:05:59;;;;;;;6.57;2.20;;;21.10;49.70;;;;;;5059864;28;20099;-63
2022/06/14 00:08:26;;;;;;;4.85;2.50;;;21.10;49.60;;;;;;5071240;28;20086;-65
2022/06/14 00:10:53;;;;;;;9.00;2.33;;;21.00;49.50;;;;;;5060919;28;20040;-63
2022/06/14 00:13:19;;;;;;;5.85;2.30;;;21.00;49.50;;;;;;5067533;28;20043;-63
2022/06/14 00:15:45;;;;;;;8.05;2.35;;;20.90;49.60;;;;;;5053275;28;20021;-63
2022/06/14 00:18:12;;;;;;;7.57;2.00;;;20.90;49.70;;;;;;5067843;28;20362;-63
2022/06/14 00:20:38;;;;;;;7.18;2.67;;;20.90;49.70;;;;;;5057807;28;20078;-64
2022/06/14 00:23:04;;;;;;;6.15;2.08;;;20.90;49.40;;;;;;5043812;28;20055;-64
2022/06/14 00:25:36;;;;;;;5.50;2.38;;;20.90;49.20;;;;;;5051513;28;20052;-64
2022/06/14 00:28:03;;;;;;;6.15;2.10;;;20.90;49.00;;;;;;5046754;28;20055;-63
2022/06/14 00:30:30;;;;;;;4.60;2.10;;;20.80;49.10;;;;;;5061620;28;20029;-63
2022/06/14 00:32:56;;;;;;;10.45;2.40;;;20.80;49.10;;;;;;5054383;28;20105;-63
2022/06/14 00:35:22;;;;;;;4.97;2.13;;;20.80;49.10;;;;;;5063801;28;20031;-64
2022/06/14 00:37:48;;;;;;;6.88;2.30;;;20.80;49.20;;;;;;5048303;28;20021;-64
2022/06/14 00:40:18;;;;;;;6.32;2.30;;;20.90;49.30;;;;;;5049063;28;20028;-64
2022/06/14 00:42:44;;;;;;;7.50;2.15;;;20.90;49.30;;;;;;5058794;28;20114;-64
2022/06/14 00:45:12;;;;;;;5.00;2.30;;;20.80;49.10;;;;;;5063460;28;20040;-63
2022/06/14 00:47:45;;;;;;;7.38;2.40;;;20.90;49.20;;;;;;5067500;28;20371;-68
2022/06/14 00:50:22;;;;;;;5.32;2.15;;;20.80;49.00;;;;;;5063057;28;20105;-63
2022/06/14 00:53:03;;;;;;;5.07;2.20;;;20.90;49.10;;;;;;5066368;28;20123;-63
2022/06/14 00:55:38;;;;;;;7.05;2.28;;;20.90;49.10;;;;;;5040791;28;20435;-63
2022/06/14 00:58:07;;;;;;;7.00;2.00;;;20.80;48.80;;;;;;5058728;28;20043;-62
2022/06/14 01:00:48;;;;;;;7.57;2.65;;;20.80;48.90;;;;;;5060687;28;20036;-62
2022/06/14 01:03:20;;;;;;;7.25;2.40;;;20.80;49.10;;;;;;5061180;28;20036;-63
2022/06/14 01:06:09;;;;;;;7.07;2.60;;;20.70;49.30;;;;;;5049537;28;20385;-63
2022/06/14 01:08:41;;;;;;;6.07;2.47;;;20.70;49.20;;;;;;5066557;28;20056;-63
2022/06/14 01:11:11;;;;;;;9.73;2.75;;;20.70;49.20;;;;;;5047052;28;20029;-63
2022/06/14 01:13:37;;;;;;;7.75;2.42;;;20.60;49.30;;;;;;5064351;28;20036;-63
2022/06/14 01:16:03;;;;;;;5.47;2.38;;;20.50;49.50;;;;;;5065107;28;20063;-63
2022/06/14 01:18:29;;;;;;;4.93;2.28;;;20.40;49.80;;;;;;5064982;28;20017;-64
2022/06/14 01:20:55;;;;;;;6.63;2.85;;;20.40;49.80;;;;;;5065292;28;20024;-63
2022/06/14 01:23:22;;;;;;;7.18;2.42;;;20.40;49.80;;;;;;5062293;28;20522;-64
2022/06/14 01:25:58;;;;;;;6.35;2.50;;;20.40;50.00;;;;;;5063891;28;20055;-64
2022/06/14 01:28:26;;;;;;;6.53;2.45;;;20.30;50.00;;;;;;5064706;28;20052;-62
2022/06/14 01:30:52;;;;;;;5.78;2.58;;;20.40;50.00;;;;;;5068179;28;20024;-64
2022/06/14 01:33:34;;;;;;;7.78;2.22;;;20.30;50.10;;;;;;5061741;28;20025;-63
2022/06/14 01:36:05;;;;;;;7.90;2.83;;;20.30;50.10;;;;;;5045870;28;20104;-65
2022/06/14 01:38:31;;;;;;;4.35;2.28;;;20.30;50.20;;;;;;5058102;28;20021;-63
2022/06/14 01:41:18;;;;;;;5.80;2.70;;;20.20;50.20;;;;;;5055007;28;20484;-63
2022/06/14 01:44:12;;;;;;;7.30;2.63;;;20.10;50.30;;;;;;5059021;28;20020;-63
2022/06/14 01:47:15;;;;;;;5.90;2.70;;;20.20;50.60;;;;;;5064351;28;20474;-62
2022/06/14 01:53:10;;;;;;;4.95;2.55;;;20.10;50.60;;;;;;5066037;28;20166;-62
2022/06/14 01:56:08;;;;;;;4.57;2.42;;;20.00;50.60;;;;;;5065899;28;20056;-63
2022/06/14 01:58:58;;;;;;;6.00;2.42;;;20.00;51.00;;;;;;5048869;28;20120;-62
2022/06/14 02:01:35;;;;;;;5.05;2.20;;;19.90;50.90;;;;;;5067287;28;20131;-62
2022/06/14 02:04:38;;;;;;;5.90;2.58;;;19.80;50.90;;;;;;5049629;28;20465;-62
2022/06/14 02:07:38;;;;;;;7.00;2.70;;;19.80;50.90;;;;;;5061779;28;20813;-63
2022/06/14 02:10:10;;;;;;;6.28;2.42;;;19.80;50.90;;;;;;5063200;28;20063;-65
2022/06/14 02:13:12;;;;;;;7.85;2.85;;;19.90;50.70;;;;;;5053295;28;20235;-63
2022/06/14 02:16:08;;;;;;;10.98;2.78;;;19.80;50.50;;;;;;5053039;28;20032;-62
2022/06/14 02:18:45;;;;;;;11.07;2.60;;;19.70;50.80;;;;;;5067587;28;20021;-63
2022/06/14 02:21:26;;;;;;;10.23;2.72;;;19.70;50.60;;;;;;5065087;28;20033;-63
2022/06/14 02:24:03;;;;;;;9.55;2.58;;;19.60;50.60;;;;;;5059629;28;20123;-64
2022/06/14 02:26:34;;;;;;;4.90;2.45;;;19.60;50.60;;;;;;5062968;28;20108;-65
2022/06/14 02:29:31;;;;;;;5.38;2.45;;;19.60;50.90;;;;;;5064673;28;20020;-62
2022/06/14 02:32:05;;;;;;;4.78;2.30;;;19.60;50.80;;;;;;5064682;28;20071;-62
2022/06/14 02:34:34;;;;;;;;;;;19.60;50.60;;;;;;5072123;28;20029;-63
2022/06/14 02:37:18;;;;;;;4.95;2.30;;;19.60;50.50;;;;;;5064113;28;19908;-62
2022/06/14 02:39:52;;;;;;;4.25;2.28;;;19.60;50.60;;;;;;5057152;28;20035;-68
2022/06/14 02:42:24;;;;;;;5.38;2.35;;;19.60;50.70;;;;;;5068015;28;20028;-63
2022/06/14 02:44:59;;;;;;;9.57;2.70;;;19.70;50.60;;;;;;5055532;28;20049;-63
2022/06/14 02:47:47;;;;;;;6.85;2.65;;;19.60;50.50;;;;;;5070894;28;20035;-63
2022/06/14 02:50:29;;;;;;;5.50;2.40;;;19.60;50.60;;;;;;5069206;28;20029;-62
2022/06/14 02:53:14;;;;;;;8.73;2.60;;;19.60;50.50;;;;;;5070812;28;20032;-63
2022/06/14 02:55:47;;;;;;;6.20;2.30;;;19.70;50.30;;;;;;5065499;28;20024;-65
2022/06/14 02:58:46;;;;;;;6.88;2.30;;;19.60;50.40;;;;;;5059987;28;20025;-63
2022/06/14 03:01:25;;;;;;;9.18;2.80;;;19.60;50.40;;;;;;5009125;28;20135;-65
2022/06/14 03:04:02;;;;;;;8.23;2.50;;;19.60;50.30;;;;;;5060903;28;20035;-63
2022/06/14 03:06:44;;;;;;;4.53;2.28;;;19.60;50.10;;;;;;5069422;28;20437;-63
2022/06/14 03:09:17;;;;;;;5.30;2.63;;;19.60;50.00;;;;;;5065267;28;20021;-63
2022/06/14 03:11:52;;;;;;;7.95;2.72;;;19.60;50.00;;;;;;5060683;28;20103;-68
2022/06/14 03:14:55;;;;;;;8.98;3.15;;;19.60;49.80;;;;;;5057254;28;20025;-64
2022/06/14 03:17:46;;;;;;;7.75;2.90;;;19.70;49.90;;;;;;5052100;28;20036;-63
2022/06/14 03:20:14;;;;;;;6.03;2.58;;;19.70;49.80;;;;;;5066897;28;20104;-64
2022/06/14 03:23:17;;;;;;;8.57;2.85;;;19.60;49.80;;;;;;5061327;28;20048;-62
2022/06/14 03:25:46;;;;;;;8.13;2.55;;;19.60;49.80;;;;;;5046987;28;20057;-67
2022/06/14 03:28:17;;;;;;;5.82;2.53;;;19.60;49.80;;;;;;5062007;28;20532;-62
2022/06/14 03:30:50;;;;;;;9.73;2.70;;;19.60;49.80;;;;;;5065708;28;20072;-69
2022/06/14 03:33:28;;;;;;;8.63;3.00;;;19.60;49.60;;;;;;5068100;28;20044;-63
2022/06/14 03:35:56;;;;;;;7.43;2.67;;;19.60;49.60;;;;;;5063503;28;20099;-63
2022/06/14 03:38:44;;;;;;;5.60;2.50;;;19.60;49.50;;;;;;5070563;28;20055;-63
2022/06/14 03:41:13;;;;;;;6.60;3.10;;;19.60;49.50;;;;;;5064054;28;20032;-63
2022/06/14 03:43:39;;;;;;;6.88;2.45;;;19.60;49.50;;;;;;5068955;28;20112;-63
2022/06/14 03:46:20;;;;;;;10.02;2.88;;;19.60;49.40;;;;;;5062402;28;20501;-63
2022/06/14 03:48:50;;;;;;;5.85;2.60;;;19.60;49.30;;;;;;5057584;28;20111;-65
2022/06/14 03:51:24;;;;;;;5.22;2.42;;;19.70;49.30;;;;;;5064946;28;20090;-64
2022/06/14 03:54:11;;;;;;;7.90;3.38;;;19.70;49.30;;;;;;5062248;28;20027;-64
2022/06/14 03:57:05;;;;;;;7.38;2.65;;;19.70;49.30;;;;;;5061552;28;20100;-64
2022/06/14 03:59:40;;;;;;;9.00;2.97;;;19.70;49.50;;;;;;5048706;28;20048;-64
2022/06/14 04:02:15;;;;;;;9.10;2.83;;;19.60;49.30;;;;;;5065884;28;20143;-62
2022/06/14 04:04:58;;;;;;;8.20;2.85;;;19.70;49.30;;;;;;5058687;28;20099;-63
2022/06/14 04:07:39;;;;;;;10.60;3.15;;;19.70;49.20;;;;;;5066814;28;20079;-62
2022/06/14 04:10:36;;;;;;;9.25;2.92;;;19.80;49.10;;;;;;5057200;28;20036;-62
2022/06/14 04:13:08;;;;;;;7.00;2.53;;;19.80;49.00;;;;;;5059722;28;20048;-63
2022/06/14 04:15:42;;;;;;;5.80;2.92;;;19.80;49.10;;;;;;5058251;28;20056;-63
2022/06/14 04:18:35;;;;;;;8.40;3.00;;;19.90;49.00;;;;;;5055807;28;20032;-63
2022/06/14 04:21:06;;;;;;;8.48;3.05;;;19.90;48.90;;;;;;5059969;28;20479;-64
2022/06/14 04:23:57;;;;;;;8.55;2.70;;;20.00;48.70;;;;;;5043318;28;20025;-63
2022/06/14 04:26:29;;;;;;;14.70;3.15;;;20.00;48.60;;;;;;5058766;28;20032;-63
2022/06/14 04:29:08;;;;;;;7.85;3.30;;;20.10;48.40;;;;;;5061805;28;20025;-63
2022/06/14 04:31:41;;;;;;;13.77;3.50;;;20.10;48.80;;;;;;5067979;28;20032;-63
2022/06/14 04:34:21;;;;;;;10.23;3.65;;;20.20;48.40;;;;;;5067028;28;20382;-63
2022/06/14 04:37:08;;;;;;;11.15;4.05;;;20.30;48.20;;;;;;5051373;28;20090;-63
2022/06/14 04:39:46;;;;;;;16.40;4.43;;;20.30;48.00;;;;;;5057947;28;20055;-63
2022/06/14 04:42:26;;;;;;;9.15;2.80;;;20.40;47.90;;;;;;5053932;28;20033;-65
2022/06/14 04:45:01;;;;;;;15.98;3.05;;;20.40;47.80;;;;;;5051063;28;20041;-63
2022/06/14 04:47:53;;;;;;;10.57;3.47;;;20.40;48.00;;;;;;5046908;28;20385;-65
2022/06/14 04:50:23;;;;;;;7.57;2.83;;;20.40;47.50;;;;;;5038420;28;20020;-64
2022/06/14 04:52:55;;;;;;;7.88;2.95;;;20.50;47.50;;;;;;5061871;28;20489;-63
2022/06/14 04:55:26;;;;;;;10.88;2.72;;;20.50;47.50;;;;;;5066132;28;20107;-63
2022/06/14 04:58:12;;;;;;;18.73;3.30;;;20.60;47.20;;;;;;5061427;28;20025;-65
2022/06/14 05:00:49;;;;;;;10.95;3.08;;;20.70;47.30;;;;;;5056803;28;20060;-63
2022/06/14 05:03:21;;;;;;;15.65;2.72;;;20.70;46.90;;;;;;5062131;28;20530;-63
2022/06/14 05:06:12;;;;;;;9.63;3.10;;;20.70;46.60;;;;;;5058536;28;20024;-69
2022/06/14 05:08:49;;;;;;;6.88;2.65;;;20.70;46.70;;;;;;5064195;28;20021;-63
2022/06/14 05:11:21;;;;;;;13.25;2.92;;;20.70;46.80;;;;;;5060230;28;20036;-64
2022/06/14 05:13:53;;;;;;;13.32;3.10;;;20.70;46.70;;;;;;5055508;28;20055;-68
2022/06/14 05:16:53;;;;;;;16.35;3.60;;;20.70;46.70;;;;;;5062658;28;20357;-63
2022/06/14 05:19:25;;;;;;;11.18;2.92;;;20.80;46.60;;;;;;5031952;28;20482;-63
2022/06/14 05:22:12;;;;;;;7.75;2.65;;;20.80;46.60;;;;;;5063945;28;20095;-62
2022/06/14 05:24:38;;;;;;;6.32;2.60;;;20.80;46.40;;;;;;5061950;28;20017;-64
2022/06/14 05:27:04;;;;;;;9.00;3.00;;;20.90;46.40;;;;;;5066183;28;20099;-64
2022/06/14 05:29:46;;;;;;;12.02;2.80;;;21.00;46.10;;;;;;5068809;28;20096;-63
2022/06/14 05:32:42;;;;;;;9.65;3.05;;;21.00;46.00;;;;;;5068446;28;20036;-63
2022/06/14 05:35:20;;;;;;;6.03;2.90;;;20.90;46.10;;;;;;5057780;28;20469;-63
2022/06/14 05:38:18;;;;;;;12.32;3.22;;;21.00;46.00;;;;;;5073307;28;20028;-63
2022/06/14 05:40:49;;;;;;;14.35;3.80;;;21.10;45.90;;;;;;5069794;28;20086;-63
2022/06/14 05:43:29;;;;;;;8.35;3.72;;;21.30;45.40;;;;;;5072309;28;20039;-63
2022/06/14 05:46:28;;;;;;;10.63;3.15;;;21.30;45.20;;;;;;5057501;28;20049;-65
2022/06/14 05:49:10;;;;;;;12.85;3.28;;;21.30;45.40;;;;;;5043315;28;20036;-67
2022/06/14 05:52:04;;;;;;;15.45;3.67;;;21.40;45.20;;;;;;5072758;28;20454;-65
2022/06/14 05:54:42;;;;;;;11.82;3.40;;;21.60;44.80;;;;;;5059323;28;20366;-66
2022/06/14 05:57:11;;;;;;;20.40;4.40;;;21.70;44.30;;;;;;5070369;28;20400;-65
2022/06/14 06:00:12;;;;;;;9.85;3.00;;;21.80;44.50;;;;;;5058322;28;20490;-65
2022/06/14 06:03:02;;;;;;;10.18;2.83;;;21.90;44.30;;;;;;5061630;28;20029;-64
2022/06/14 06:05:42;;;;;;;15.95;4.03;;;22.00;44.10;;;;;;5059903;28;20462;-65
2022/06/14 06:08:19;;;;;;;13.80;3.78;;;22.00;43.90;;;;;;5058172;28;20056;-69
2022/06/14 06:10:48;;;;;;;24.10;3.60;;;22.10;43.70;;;;;;5047830;28;20063;-65
2022/06/14 06:13:20;;;;;;;13.38;3.58;;;22.30;43.50;;;;;;5065660;28;20052;-65
2022/06/14 06:15:59;;;;;;;16.40;4.05;;;22.40;43.10;;;;;;5066056;28;20029;-65
2022/06/14 06:18:39;;;;;;;8.73;3.10;;;22.40;43.10;;;;;;5067221;28;20386;-66
2022/06/14 06:21:26;;;;;;;8.00;2.75;;;22.50;43.00;;;;;;5066650;28;20033;-64
2022/06/14 06:24:12;;;;;;;11.82;2.78;;;22.50;42.50;;;;;;5064780;28;20466;-63
2022/06/14 06:26:42;;;;;;;10.00;2.85;;;22.50;42.60;;;;;;5068788;28;20045;-67
2022/06/14 06:29:16;;;;;;;6.72;2.75;;;22.50;42.40;;;;;;5063205;28;20467;-67
2022/06/14 06:31:45;;;;;;;7.85;2.75;;;22.60;42.60;;;;;;5067598;28;20096;-68
2022/06/14 06:34:13;;;;;;;8.27;2.65;;;22.60;42.20;;;;;;5064202;28;20234;-64
2022/06/14 06:36:47;;;;;;;14.98;3.40;;;22.80;41.80;;;;;;5051546;28;20086;-66
2022/06/14 06:39:16;;;;;;;11.88;3.10;;;23.10;41.80;;;;;;5064082;28;20021;-65
2022/06/14 06:41:55;;;;;;;13.15;3.05;;;23.30;41.10;;;;;;5060933;28;20036;-67
2022/06/14 06:44:45;;;;;;;8.80;2.70;;;23.40;40.80;;;;;;5071319;28;20024;-66
2022/06/14 06:47:22;;;;;;;12.27;3.60;;;23.80;40.70;;;;;;5057631;28;20029;-62
2022/06/14 06:49:56;;;;;;;8.43;3.25;;;24.40;39.30;;;;;;5048002;28;20484;-65
2022/06/14 06:52:33;;;;;;;9.80;3.17;;;26.20;38.40;;;;;;5070752;28;20126;-65
2022/06/14 06:55:06;;;;;;;9.35;3.35;;;30.30;33.60;;;;;;5049225;28;20113;-65
2022/06/14 06:57:34;;;;;;;9.25;3.17;;;33.70;29.90;;;;;;5061641;28;20095;-66
2022/06/14 07:00:01;;;;;;;12.15;3.60;;;36.90;27.60;;;;;;5042141;28;20090;-66
2022/06/14 07:02:41;;;;;;;24.45;4.47;;;39.50;25.40;;;;;;5048381;28;20119;-67
2022/06/14 07:05:14;;;;;;;8.88;3.33;;;40.80;24.70;;;;;;5066713;28;20024;-66
2022/06/14 07:08:03;;;;;;;7.80;2.85;;;42.50;23.60;;;;;;5066092;28;20039;-66
2022/06/14 07:10:50;;;;;;;8.60;2.97;;;43.20;23.20;;;;;;5068926;28;20496;-67
2022/06/14 07:13:39;;;;;;;10.00;3.00;;;43.20;22.60;;;;;;5060269;28;20017;-66
2022/06/14 07:16:32;;;;;;;6.55;2.63;;;43.00;22.60;;;;;;5070557;28;20032;-66
2022/06/14 07:19:16;;;;;;;6.63;3.10;;;42.80;22.80;;;;;;5030912;28;20041;-67
2022/06/14 07:21:52;;;;;;;8.63;3.08;;;43.40;22.30;;;;;;5068281;28;20044;-66
2022/06/14 07:24:22;;;;;;;7.10;2.75;;;43.80;22.10;;;;;;5067813;28;20039;-66
2022/06/14 07:26:50;;;;;;;5.28;2.72;;;44.40;21.90;;;;;;5069301;28;20024;-71
2022/06/14 07:30:05;;;;;;;6.68;2.83;;;45.00;21.60;;;;;;5058987;28;20059;-70
2022/06/14 07:32:44;;;;;;;8.60;3.40;;;45.00;21.70;;;;;;5051938;28;20044;-66
2022/06/14 07:35:13;;;;;;;37.03;4.47;;;44.90;21.00;;;;;;5046276;28;20028;-65
2022/06/14 07:37:44;;;;;;;7.15;3.13;;;43.90;21.30;;;;;;5066519;28;20422;-69
2022/06/14 07:40:22;;;;;;;7.22;3.03;;;44.00;21.60;;;;;;5065511;28;20056;-65
2022/06/14 07:42:53;;;;;;;7.13;2.80;;;45.20;21.40;;;;;;5060153;28;20123;-65
2022/06/14 07:45:28;;;;;;;7.70;3.15;;;46.20;20.90;;;;;;5060777;28;20041;-66
2022/06/14 07:47:56;;;;;;;9.02;3.13;;;46.80;21.00;;;;;;5056617;28;20036;-66
2022/06/14 07:50:54;;;;;;;12.45;3.38;;;47.50;21.30;;;;;;5065941;28;20029;-66
2022/06/14 07:53:29;;;;;;;13.70;3.10;;;47.50;20.80;;;;;;5061568;28;20029;-66
2022/06/14 07:56:23;;;;;;;4.45;2.63;;;47.60;20.20;;;;;;5066225;28;20021;-66
2022/06/14 07:59:09;;;;;;;7.18;3.42;;;46.70;20.30;;;;;;5039815;28;20401;-66
2022/06/14 08:01:46;;;;;;;10.70;4.15;;;46.30;20.70;;;;;;5066706;28;20035;-66
2022/06/14 08:04:16;;;;;;;7.82;3.45;;;47.20;20.40;;;;;;5060121;28;20037;-67
2022/06/14 08:06:52;;;;;;;12.00;5.85;;;47.80;20.40;;;;;;5065577;28;20032;-66
2022/06/14 08:09:24;;;;;;;8.05;3.72;;;48.30;20.20;;;;;;5059678;28;20575;-66
2022/06/14 08:11:56;;;;;;;8.07;3.15;;;49.00;20.20;;;;;;5050797;28;20146;-66
2022/06/14 08:14:40;;;;;;;9.07;3.60;;;49.00;19.70;;;;;;5042066;28;20036;-66
2022/06/14 08:17:08;;;;;;;7.28;2.75;;;48.20;20.00;;;;;;5064187;28;20039;-67
2022/06/14 08:19:58;;;;;;;8.30;2.90;;;47.00;20.10;;;;;;5059270;28;20075;-66
2022/06/14 08:22:34;;;;;;;6.75;2.17;;;45.40;20.50;;;;;;5066026;28;20052;-67
2022/06/14 08:25:05;;;;;;;7.15;2.90;;;44.10;20.90;;;;;;5065397;28;20118;-69
2022/06/14 08:27:41;;;;;;;9.43;3.30;;;42.20;21.60;;;;;;5047265;28;20088;-69
2022/06/14 08:30:15;;;;;;;8.05;2.83;;;40.90;22.30;;;;;;5064404;28;20027;-66
2022/06/14 08:32:55;;;;;;;9.25;3.50;;;40.60;22.40;;;;;;5066969;28;20139;-66
2022/06/14 08:35:34;;;;;;;12.15;3.70;;;39.90;22.70;;;;;;5046835;28;20025;-66
2022/06/14 08:38:23;;;;;;;7.80;3.40;;;39.00;23.40;;;;;;5038977;28;20037;-67
2022/06/14 08:41:15;;;;;;;9.82;2.90;;;39.50;23.70;;;;;;5057910;28;20043;-66
2022/06/14 08:43:45;;;;;;;8.48;2.97;;;40.90;23.00;;;;;;5052178;28;20392;-66
2022/06/14 08:46:32;;;;;;;9.35;3.00;;;42.40;22.70;;;;;;5061586;28;20047;-67
2022/06/14 08:49:24;;;;;;;12.68;3.60;;;45.40;21.40;;;;;;5055203;28;20445;-67
2022/06/14 08:51:52;;;;;;;7.03;3.33;;;46.80;20.80;;;;;;5071299;28;20496;-66
2022/06/14 08:54:39;;;;;;;8.48;3.38;;;48.50;19.90;;;;;;5057798;28;20017;-67
2022/06/14 08:57:23;;;;;;;11.75;3.92;;;49.70;19.80;;;;;;5035812;28;20391;-66
2022/06/14 08:59:58;;;;;;;9.23;3.70;;;51.10;19.50;;;;;;5061160;28;20095;-65
2022/06/14 09:02:52;;;;;;;14.00;6.45;;;52.50;19.30;;;;;;5057285;28;20453;-66
2022/06/14 09:05:26;;;;;;;6.18;3.33;;;53.30;19.00;;;;;;5040714;28;20017;-67
2022/06/14 09:08:22;;;;;;;7.28;3.72;;;52.80;18.80;;;;;;5070446;28;20037;-67
2022/06/14 09:11:15;;;;;;;12.57;3.70;;;52.00;18.90;;;;;;5066539;28;20036;-67
2022/06/14 09:14:24;;;;;;;39.38;4.28;;;51.60;19.10;;;;;;5057660;28;20032;-67
2022/06/14 09:17:25;;;;;;;6.15;2.83;;;51.50;18.80;;;;;;5021994;28;20032;-66
2022/06/14 09:20:02;;;;;;;6.93;2.53;;;50.60;19.30;;;;;;5066660;28;20025;-65
2022/06/14 09:22:37;;;;;;;8.38;2.92;;;49.10;19.50;;;;;;5065683;28;20121;-67
2022/06/14 09:25:19;;;;;;;13.70;3.42;;;46.00;20.30;;;;;;5067408;28;20186;-66
2022/06/14 09:27:47;;;;;;;13.18;3.28;;;43.10;21.20;;;;;;5058100;28;20108;-66
2022/06/14 09:30:35;;;;;;;9.07;3.72;;;40.10;22.50;;;;;;5058068;28;20355;-66
2022/06/14 09:33:58;;;;;;;11.00;3.22;;;37.80;24.10;;;;;;5058441;28;20037;-65
2022/06/14 09:36:59;;;;;;;6.93;3.28;;;35.90;24.90;;;;;;4988381;28;20196;-66
2022/06/14 09:39:53;;;;;;;17.52;4.65;;;34.10;26.20;;;;;;4921606;29;20123;-66
2022/06/14 09:42:55;;;;;;;9.13;3.08;;;33.10;27.10;;;;;;4968282;28;20439;-67
2022/06/14 09:45:21;;;;;;;7.00;2.75;;;32.20;27.50;;;;;;4970873;28;20050;-68
2022/06/14 09:48:04;;;;;;;15.65;4.38;;;31.30;28.30;;;;;;4979580;28;20436;-67
2022/06/14 09:50:54;;;;;;;7.43;2.95;;;30.80;29.00;;;;;;4969800;28;20034;-66
2022/06/14 09:54:22;;;;;;;10.85;3.00;;;30.60;29.20;;;;;;4983822;28;20107;-66
2022/06/14 09:57:03;;;;;;;12.82;5.20;;;30.30;29.50;;;;;;4948089;28;20030;-67
2022/06/14 09:59:56;;;;;;;9.85;4.00;;;30.10;29.90;;;;;;4982219;28;20062;-66
2022/06/14 10:02:46;;;;;;;14.63;4.30;;;29.90;30.00;;;;;;4978898;28;20045;-67
2022/06/14 10:05:40;;;;;;;15.40;6.75;;;29.80;30.20;;;;;;4976260;28;20077;-65
2022/06/14 10:08:26;;;;;;;;;;;29.80;30.20;;;;;;4977537;28;20035;-70
2022/06/14 10:11:01;;;;;;;8.05;3.15;;;29.80;30.00;;;;;;4986087;28;19914;-67
2022/06/14 10:13:57;;;;;;;9.70;2.97;;;29.70;30.40;;;;;;4991787;28;20259;-67
2022/06/14 10:16:37;;;;;;;8.80;3.63;;;29.40;30.20;;;;;;5014398;28;20418;-66
2022/06/14 10:19:14;;;;;;;12.68;3.83;;;29.20;30.80;;;;;;5052814;28;20458;-66
2022/06/14 10:22:10;;;;;;;9.10;3.50;;;29.20;31.00;;;;;;5064557;28;20044;-67
2022/06/14 10:24:42;;;;;;;10.57;3.97;;;29.10;30.90;;;;;;5052939;28;20425;-66
2022/06/14 10:30:28;;;;;;;;;;;29.40;31.40;;;;;;5059319;28;20023;-65
2022/06/14 10:33:16;;;;;;;9.35;4.35;;;29.70;30.60;;;;;;5067218;28;19927;-67
2022/06/14 10:36:09;;;;;;;9.32;3.10;;;30.10;29.90;;;;;;5064678;28;20070;-65
2022/06/14 10:38:47;;;;;;;13.23;3.67;;;30.30;29.10;;;;;;5052289;28;20465;-67
2022/06/14 10:41:20;;;;;;;12.02;4.40;;;30.40;29.20;;;;;;5071655;28;20029;-67
2022/06/14 10:43:53;;;;;;;;;;;30.70;29.30;;;;;;5055440;28;20025;-65
2022/06/14 10:46:24;;;;;;;7.93;3.00;;;31.00;29.30;;;;;;5074877;28;19939;-67
2022/06/14 10:49:06;;;;;;;8.68;3.90;;;31.20;28.80;;;;;;5075877;28;20533;-69
2022/06/14 10:51:58;;;;;;;9.40;2.90;;;31.20;28.80;;;;;;5086108;28;20359;-68
2022/06/14 10:54:42;;;;;;;7.80;2.70;;;30.70;27.90;;;;;;5080406;28;20031;-67
2022/06/14 10:57:19;;;;;;;9.30;3.13;;;30.40;28.90;;;;;;5086154;28;20048;-67
2022/06/14 10:59:47;;;;;;;6.65;2.42;;;30.40;29.00;;;;;;5080283;28;20023;-67
2022/06/14 11:02:36;;;;;;;9.82;3.00;;;30.20;28.90;;;;;;5080285;28;20024;-66
2022/06/14 11:05:38;;;;;;;6.97;2.95;;;30.20;29.00;;;;;;5084249;28;20376;-67
2022/06/14 11:08:39;;;;;;;8.55;3.20;;;30.60;29.40;;;;;;5086636;28;20016;-65
2022/06/14 11:11:31;;;;;;;16.65;4.68;;;30.70;29.50;;;;;;5057393;28;20040;-66
2022/06/14 11:14:13;;;;;;;15.80;3.92;;;30.50;29.50;;;;;;5084257;28;20079;-67
2022/06/14 11:16:50;;;;;;;11.82;3.03;;;30.40;29.50;;;;;;5090764;28;20114;-67
2022/06/14 11:19:49;;;;;;;10.25;2.97;;;30.30;29.80;;;;;;5087077;28;20031;-64
2022/06/14 11:22:51;;;;;;;10.43;2.90;;;30.30;29.50;;;;;;5081289;28;20465;-66
2022/06/14 11:25:57;;;;;;;7.53;2.85;;;30.10;29.50;;;;;;5081101;28;20028;-67
2022/06/14 11:28:36;;;;;;;8.95;2.58;;;29.70;29.90;;;;;;5083331;28;20111;-67
2022/06/14 11:31:14;;;;;;;12.43;3.88;;;29.40;30.10;;;;;;5088717;28;20085;-67
2022/06/14 11:34:34;;;;;;;10.05;3.20;;;29.00;30.60;;;;;;5087881;28;20024;-66
2022/06/14 11:37:28;;;;;;;7.75;2.60;;;28.80;30.90;;;;;;4999647;28;20029;-66
2022/06/14 11:40:31;;;;;;;7.28;2.45;;;28.50;30.90;;;;;;5089715;28;20032;-66
2022/06/14 11:43:36;;;;;;;11.50;4.35;;;28.40;31.00;;;;;;5086037;28;20110;-68
2022/06/14 11:46:16;;;;;;;12.30;5.82;;;28.30;31.40;;;;;;5037298;28;20044;-67
2022/06/14 11:48:48;;;;;;;25.63;5.32;;;28.30;31.40;;;;;;5082999;28;20016;-66
2022/06/14 11:51:24;;;;;;;8.40;3.37;;;28.50;31.50;;;;;;5078962;28;20036;-73
2022/06/14 11:54:21;;;;;;;11.68;5.63;;;28.70;31.60;;;;;;5085196;28;20031;-66
2022/06/14 11:57:35;;;;;;;40.10;7.85;;;28.90;31.60;;;;;;5029435;28;20064;-66
2022/06/14 12:00:23;;;;;;;16.05;3.22;;;29.30;31.20;;;;;;5018900;28;20044;-66
2022/06/14 12:03:36;;;;;;;14.05;3.40;;;29.60;30.90;;;;;;5024439;28;20034;-67
2022/06/14 12:06:33;;;;;;;11.65;2.60;;;29.90;30.60;;;;;;5021075;28;20038;-68
2022/06/14 12:09:15;;;;;;;10.30;2.83;;;29.70;30.30;;;;;;5022574;28;20084;-66
2022/06/14 12:11:59;;;;;;;18.35;4.75;;;29.70;30.70;;;;;;5010875;28;20034;-66
2022/06/14 12:14:50;;;;;;;9.35;3.67;;;29.80;30.40;;;;;;5010683;28;20028;-68
2022/06/14 12:17:19;;;;;;;21.40;3.80;;;29.80;30.90;;;;;;5010824;28;20030;-71
2022/06/14 12:19:53;;;;;;;15.18;4.03;;;29.80;31.50;;;;;;5018407;28;20120;-67
2022/06/14 12:22:28;;;;;;;15.40;4.20;;;29.70;30.80;;;;;;5022691;28;20025;-67
2022/06/14 12:27:44;;;;;;;18.33;3.50;;;29.40;30.80;;;;;;5014621;28;20100;-67
2022/06/14 12:30:15;;;;;;;11.40;3.47;;;29.50;30.60;;;;;;5023985;28;20488;-68
2022/06/14 12:32:50;;;;;;;18.30;3.30;;;29.50;30.80;;;;;;5057932;28;20046;-66
2022/06/14 12:35:21;;;;;;;14.43;2.80;;;29.50;30.70;;;;;;5077549;28;20092;-67
2022/06/14 12:38:19;;;;;;;10.95;2.75;;;29.40;30.90;;;;;;5090065;28;20123;-65
2022/06/14 12:40:54;;;;;;;6.13;3.53;;;29.30;30.90;;;;;;4997041;28;20081;-66
2022/06/14 12:43:33;;;;;;;9.30;2.45;;;29.20;30.80;;;;;;4991061;28;20490;-66
2022/06/14 12:46:22;;;;;;;8.27;2.60;;;29.20;31.30;;;;;;4986438;28;20502;-71
2022/06/14 12:49:07;;;;;;;4.47;2.30;;;29.10;31.30;;;;;;4991406;28;20030;-68
2022/06/14 12:51:37;;;;;;;13.15;6.82;;;28.90;31.50;;;;;;4998988;28;20076;-67
2022/06/14 12:54:23;;;;;;;13.35;3.28;;;28.70;31.60;;;;;;5005585;28;20457;-66
2022/06/14 12:56:58;;;;;;;5.28;2.70;;;28.90;31.70;;;;;;4996027;28;20096;-68
2022/06/14 12:59:46;;;;;;;4.03;2.33;;;29.00;31.80;;;;;;4998659;28;20478;-69
2022/06/14 13:02:35;;;;;;;7.50;2.45;;;29.00;31.70;;;;;;4997344;28;20042;-67
2022/06/14 13:05:05;;;;;;;9.48;2.95;;;28.80;31.70;;;;;;5002946;28;20116;-68
2022/06/14 13:07:51;;;;;;;6.43;2.10;;;28.80;31.90;;;;;;4992450;28;20122;-65
2022/06/14 13:10:41;;;;;;;9.15;3.22;;;28.70;31.90;;;;;;4999716;28;20377;-68
2022/06/14 13:13:13;;;;;;;5.45;2.10;;;28.70;31.80;;;;;;4990857;28;20142;-65
2022/06/14 13:16:20;;;;;;;7.93;2.60;;;28.50;32.10;;;;;;4997940;28;20571;-66
2022/06/14 13:19:19;;;;;;;6.38;2.95;;;28.30;32.20;;;;;;5014638;28;20045;-67
2022/06/14 13:21:53;;;;;;;7.97;2.47;;;28.40;32.60;;;;;;5086792;28;20148;-66
2022/06/14 13:24:37;;;;;;;11.38;3.03;;;28.40;32.10;;;;;;5083876;28;20101;-66
2022/06/14 13:27:37;;;;;;;7.05;2.60;;;28.20;32.60;;;;;;5077421;28;20020;-66
2022/06/14 13:30:30;;;;;;;10.52;3.00;;;28.30;32.50;;;;;;5083753;28;20506;-69
2022/06/14 13:33:01;;;;;;;4.88;2.25;;;28.30;32.60;;;;;;5092942;28;20393;-66
2022/06/14 13:36:04;;;;;;;9.45;4.43;;;28.30;32.60;;;;;;5074804;28;20040;-66
2022/06/14 13:38:42;;;;;;;12.40;3.15;;;28.50;32.60;;;;;;5084238;28;20032;-70
2022/06/14 13:41:16;;;;;;;8.50;2.95;;;28.80;31.90;;;;;;5077933;28;20036;-66
2022/06/14 13:44:05;;;;;;;9.73;2.55;;;29.10;31.60;;;;;;5086583;28;20081;-67
2022/06/14 13:46:44;;;;;;;11.82;4.97;;;29.30;31.60;;;;;;5071680;28;20043;-65
2022/06/14 13:49:33;;;;;;;15.25;3.70;;;29.40;31.80;;;;;;5054670;28;20043;-66
2022/06/14 13:52:24;;;;;;;22.75;4.15;;;29.50;31.10;;;;;;5058689;28;20036;-66
2022/06/14 13:55:08;;;;;;;15.38;6.47;;;29.60;30.90;;;;;;5068511;28;20392;-66
2022/06/14 13:57:52;;;;;;;11.55;6.07;;;29.60;30.90;;;;;;5064133;28;20028;-66
2022/06/14 14:00:33;;;;;;;9.15;2.67;;;29.50;31.00;;;;;;5064910;28;20031;-66
2022/06/14 14:03:14;;;;;;;10.75;3.60;;;29.40;30.70;;;;;;5057474;28;20036;-66
2022/06/14 14:06:24;;;;;;;9.88;3.58;;;29.20;30.90;;;;;;5071762;28;20389;-65